Terminal Aerodrome Forecast
Issued by NWS

Home | Current Version | Previous Version | Text Only | Print | Product List | Glossary On
Versions: 1 2 3 4 5 6 7 8 9 10 11 12 13 14 15 16 17 18 19 20 21 22 23 24 25
000
FTUS43 KDLH 252029 AAB
TAFHYR
TAF AMD
KHYR 252029Z 2520/2618 32007G18KT P6SM SCT025 BKN035
     FM252200 31009G17KT P6SM -SHRA BKN040
     FM260100 32005KT P6SM SCT070=

USA.gov is the U.S. government's official web portal to all federal, state and local government web resources and services.